createdAt,value
2023-02-12T00:01:16.974Z,101830.06
2023-02-12T00:03:43.934Z,101835.72
2023-02-12T00:06:13.495Z,101836.75
2023-02-12T00:08:41.669Z,101826.91
2023-02-12T00:11:17.088Z,101821.25
2023-02-12T00:13:44.486Z,101827.91
2023-02-12T00:16:13.359Z,101827.25
2023-02-12T00:18:40.666Z,101830.22
2023-02-12T00:21:10.611Z,101829.06
2023-02-12T00:23:38.984Z,101821.03
2023-02-12T00:26:09.468Z,101823.38
2023-02-12T00:28:37.778Z,101822.03
2023-02-12T00:31:16.742Z,101823.31
2023-02-12T00:33:43.961Z,101826.50
2023-02-12T00:36:14.786Z,101821.41
2023-02-12T00:38:41.634Z,101824.81
2023-02-12T00:41:10.495Z,101818.31
2023-02-12T00:43:37.428Z,101810.94
2023-02-12T00:46:05.392Z,101820.66
2023-02-12T00:48:32.553Z,101820.84
2023-02-12T00:50:59.492Z,101815.31
2023-02-12T00:53:28.728Z,101819.00
2023-02-12T00:55:56.083Z,101821.91
2023-02-12T00:58:23.336Z,101819.88
2023-02-12T01:00:50.270Z,101825.94
2023-02-12T01:03:17.758Z,101820.13
2023-02-12T01:05:44.538Z,101823.63
2023-02-12T01:08:13.667Z,101825.16
2023-02-12T01:10:40.898Z,101818.41
2023-02-12T01:13:13.286Z,101822.56
2023-02-12T01:15:41.398Z,101818.19
2023-02-12T01:18:08.538Z,101817.34
2023-02-12T01:20:35.396Z,101816.66
2023-02-12T01:23:02.374Z,101804.41
2023-02-12T01:25:29.228Z,101802.59
2023-02-12T01:27:56.139Z,101813.31
2023-02-12T01:30:24.347Z,101807.84
2023-02-12T01:32:51.751Z,101817.88
2023-02-12T01:35:18.702Z,101814.84
2023-02-12T01:37:45.529Z,101812.53
2023-02-12T01:40:16.054Z,101795.59
2023-02-12T01:42:42.966Z,101802.97
2023-02-12T01:45:13.013Z,101799.06
2023-02-12T01:47:44.743Z,101800.72
2023-02-12T01:50:20.230Z,101801.56
2023-02-12T01:52:51.906Z,101807.94
2023-02-12T01:55:19.478Z,101800.72
2023-02-12T01:57:47.806Z,101800.06
2023-02-12T02:00:21.769Z,101793.03
2023-02-12T02:02:53.072Z,101790.41
2023-02-12T02:05:42.146Z,101791.19
2023-02-12T02:08:09.981Z,101796.38
2023-02-12T02:10:36.728Z,101795.81
2023-02-12T02:13:22.218Z,101787.16
2023-02-12T02:15:51.819Z,101791.56
2023-02-12T02:18:35.603Z,101796.25
2023-02-12T02:21:18.580Z,101801.56
2023-02-12T02:24:29.801Z,101804.44
2023-02-12T02:27:14.671Z,101816.38
2023-02-12T02:29:47.672Z,101808.50
2023-02-12T02:32:20.131Z,101818.19
2023-02-12T02:35:12.364Z,101803.09
2023-02-12T02:38:06.491Z,101805.25
2023-02-12T02:40:40.542Z,101797.72
2023-02-12T02:43:10.349Z,101807.63
2023-02-12T02:46:02.553Z,101804.09
2023-02-12T02:48:42.129Z,101809.81
2023-02-12T02:51:14.367Z,101813.81
2023-02-12T02:53:48.652Z,101795.41
2023-02-12T02:56:18.338Z,101811.47
2023-02-12T02:58:53.590Z,101809.16
2023-02-12T03:01:30.712Z,101805.03
2023-02-12T03:04:09.207Z,101804.19
2023-02-12T03:06:56.253Z,101791.66
2023-02-12T03:09:28.895Z,101804.28
2023-02-12T03:12:00.608Z,101811.94
2023-02-12T03:14:31.193Z,101820.22
2023-02-12T03:17:15.795Z,101822.88
2023-02-12T03:19:46.100Z,101824.09
2023-02-12T03:22:18.726Z,101822.56
2023-02-12T03:24:50.848Z,101824.72
2023-02-12T03:27:23.387Z,101820.59
2023-02-12T03:29:50.291Z,101815.09
2023-02-12T03:32:35.918Z,101808.91
2023-02-12T03:35:14.760Z,101815.94
2023-02-12T03:37:47.970Z,101810.06
2023-02-12T03:40:18.855Z,101801.00
2023-02-12T03:43:10.285Z,101800.34
2023-02-12T03:46:18.033Z,101806.69
2023-02-12T03:49:10.581Z,101809.38
2023-02-12T03:51:42.554Z,101796.28
2023-02-12T03:54:11.022Z,101805.38
2023-02-12T03:56:42.830Z,101804.72
2023-02-12T03:59:10.084Z,101803.72
2023-02-12T04:01:37.148Z,101806.22
2023-02-12T04:04:06.655Z,101803.69
2023-02-12T04:06:33.839Z,101797.19
2023-02-12T04:09:10.405Z,101808.34
2023-02-12T04:11:46.642Z,101812.53
2023-02-12T04:14:29.665Z,101815.88
2023-02-12T04:17:36.438Z,101807.25
2023-02-12T04:20:06.530Z,101813.78
2023-02-12T04:22:36.336Z,101819.94
2023-02-12T04:25:33.666Z,101813.91
2023-02-12T04:28:15.901Z,101817.78
2023-02-12T04:30:57.110Z,101811.94
2023-02-12T04:33:26.118Z,101819.09
2023-02-12T04:36:03.072Z,101814.88
2023-02-12T04:38:57.234Z,101817.75
2023-02-12T04:41:24.971Z,101822.25
2023-02-12T04:43:51.793Z,101824.28
2023-02-12T04:46:18.647Z,101817.78
2023-02-12T04:48:57.172Z,101831.19
2023-02-12T04:51:24.391Z,101831.19
2023-02-12T04:53:51.210Z,101834.72
2023-02-12T04:56:18.119Z,101835.34
2023-02-12T04:58:44.959Z,101827.84
2023-02-12T05:01:12.033Z,101837.72
2023-02-12T05:03:38.782Z,101831.53
2023-02-12T05:06:07.582Z,101836.88
2023-02-12T05:08:34.349Z,101838.25
2023-02-12T05:11:06.410Z,101835.72
2023-02-12T05:13:33.376Z,101846.91
2023-02-12T05:16:00.625Z,101841.84
2023-02-12T05:18:27.510Z,101843.00
2023-02-12T05:21:02.172Z,101840.50
2023-02-12T05:23:33.170Z,101838.31
2023-02-12T05:26:00.478Z,101828.63
2023-02-12T05:28:28.324Z,101844.09
2023-02-12T05:30:55.728Z,101852.63
2023-02-12T05:33:22.563Z,101858.50
2023-02-12T05:35:49.985Z,101857.34
2023-02-12T05:38:16.798Z,101848.31
2023-02-12T05:40:43.754Z,101844.97
2023-02-12T05:43:10.934Z,101835.28
2023-02-12T05:45:38.234Z,101828.41
2023-02-12T05:48:05.056Z,101827.78
2023-02-12T05:50:31.929Z,101827.75
2023-02-12T05:53:08.091Z,101836.97
2023-02-12T05:55:34.914Z,101835.66
2023-02-12T05:58:01.641Z,101834.13
2023-02-12T06:00:28.581Z,101833.94
2023-02-12T06:02:55.376Z,101830.44
2023-02-12T06:05:22.151Z,101821.34
2023-02-12T06:07:48.978Z,101822.13
2023-02-12T06:10:15.868Z,101826.75
2023-02-12T06:12:42.731Z,101820.56
2023-02-12T06:15:09.958Z,101811.59
2023-02-12T06:17:36.710Z,101811.75
2023-02-12T06:20:04.061Z,101804.94
2023-02-12T06:22:30.916Z,101811.94
2023-02-12T06:24:57.685Z,101819.78
2023-02-12T06:27:24.435Z,101826.91
2023-02-12T06:29:51.236Z,101818.81
2023-02-12T06:32:18.152Z,101819.09
2023-02-12T06:34:45.172Z,101822.56
2023-02-12T06:37:12.365Z,101829.28
2023-02-12T06:39:39.176Z,101826.81
2023-02-12T06:42:06.069Z,101833.03
2023-02-12T06:44:32.961Z,101827.75
2023-02-12T06:46:59.856Z,101822.50
2023-02-12T06:49:26.735Z,101826.41
2023-02-12T06:51:53.496Z,101830.81
2023-02-12T06:54:20.322Z,101830.91
2023-02-12T06:56:47.144Z,101829.38
2023-02-12T06:59:15.976Z,101836.53
2023-02-12T07:01:42.828Z,101834.19
2023-02-12T07:04:10.131Z,101830.78
2023-02-12T07:06:37.094Z,101828.63
2023-02-12T07:09:05.209Z,101830.69
2023-02-12T07:11:37.929Z,101831.59
2023-02-12T07:14:05.725Z,101843.88
2023-02-12T07:16:32.649Z,101846.91
2023-02-12T07:18:59.519Z,101838.19
2023-02-12T07:21:26.359Z,101847.91
2023-02-12T07:23:53.581Z,101843.63
2023-02-12T07:26:21.377Z,101850.84
2023-02-12T07:28:48.687Z,101852.84
2023-02-12T07:31:18.169Z,101855.56
2023-02-12T07:33:45.676Z,101857.44
2023-02-12T07:36:15.328Z,101851.50
2023-02-12T07:38:42.538Z,101854.66
2023-02-12T07:41:12.696Z,101861.41
2023-02-12T07:43:41.045Z,101859.69
2023-02-12T07:46:18.934Z,101862.94
2023-02-12T07:48:46.859Z,101868.47
2023-02-12T07:51:19.441Z,101868.84
2023-02-12T07:53:46.480Z,101877.63
2023-02-12T07:56:19.421Z,101877.00
2023-02-12T07:58:48.175Z,101874.19
2023-02-12T08:01:21.285Z,101887.31
2023-02-12T08:03:49.363Z,101884.72
2023-02-12T08:06:21.799Z,101876.97
2023-02-12T08:08:50.633Z,101878.97
2023-02-12T08:11:18.848Z,101882.16
2023-02-12T08:13:46.066Z,101888.97
2023-02-12T08:16:18.177Z,101894.09
2023-02-12T08:18:45.359Z,101885.13
2023-02-12T08:21:15.225Z,101888.59
2023-02-12T08:23:42.438Z,101887.91
2023-02-12T08:26:10.755Z,101887.88
2023-02-12T08:28:39.445Z,101898.13
2023-02-12T08:31:10.527Z,101894.97
2023-02-12T08:36:39.335Z,101897.53
2023-02-12T08:39:08.083Z,101899.03
2023-02-12T08:41:35.271Z,101892.78
2023-02-12T08:44:03.587Z,101895.28
2023-02-12T08:46:34.576Z,101897.44
2023-02-12T08:49:05.860Z,101891.22
2023-02-12T08:51:35.895Z,101900.50
2023-02-12T08:54:05.030Z,101905.16
2023-02-12T08:56:33.560Z,101900.59
2023-02-12T08:59:02.230Z,101898.53
2023-02-12T09:01:30.978Z,101898.16
2023-02-12T09:03:57.912Z,101893.97
2023-02-12T09:06:25.834Z,101899.47
2023-02-12T09:08:54.119Z,101901.59
2023-02-12T09:11:26.678Z,101900.75
2023-02-12T09:13:53.747Z,101898.28
2023-02-12T09:16:20.496Z,101896.81
2023-02-12T09:18:47.419Z,101902.66
2023-02-12T09:21:16.749Z,101897.75
2023-02-12T09:23:44.114Z,101897.47
2023-02-12T09:26:13.209Z,101894.31
2023-02-12T09:28:40.404Z,101895.66
2023-02-12T09:31:16.186Z,101900.34
2023-02-12T09:33:43.358Z,101896.59
2023-02-12T09:36:15.807Z,101901.09
2023-02-12T09:38:43.525Z,101907.97
2023-02-12T09:41:21.917Z,101900.66
2023-02-12T09:44:09.717Z,101900.31
2023-02-12T09:46:53.970Z,101894.34
2023-02-12T09:49:48.054Z,101898.34
2023-02-12T09:52:20.010Z,101901.75
2023-02-12T09:54:48.391Z,101906.91
2023-02-12T09:57:19.240Z,101894.72
2023-02-12T09:59:54.398Z,101899.41
2023-02-12T10:02:22.503Z,101893.22
2023-02-12T10:05:00.677Z,101892.44
2023-02-12T10:07:45.907Z,101884.25
2023-02-12T10:10:27.741Z,101894.44
2023-02-12T10:12:58.245Z,101895.97
2023-02-12T10:15:51.971Z,101892.97
2023-02-12T10:18:56.347Z,101891.28
2023-02-12T10:21:35.921Z,101891.97
2023-02-12T10:24:31.567Z,101896.34
2023-02-12T10:27:11.941Z,101897.50
2023-02-12T10:29:42.418Z,101896.81
2023-02-12T10:32:35.441Z,101894.66
2023-02-12T10:35:02.533Z,101893.81
2023-02-12T10:37:46.341Z,101896.16
2023-02-12T10:40:30.090Z,101892.97
2023-02-12T10:42:58.133Z,101897.47
2023-02-12T10:45:32.226Z,101894.59
2023-02-12T10:48:19.064Z,101892.75
2023-02-12T10:51:20.679Z,101896.22
2023-02-12T10:53:48.568Z,101894.72
2023-02-12T10:56:18.917Z,101892.53
2023-02-12T10:58:53.161Z,101895.88
2023-02-12T11:01:37.637Z,101891.34
2023-02-12T11:04:30.379Z,101898.50
2023-02-12T11:07:00.374Z,101893.28
2023-02-12T11:09:45.674Z,101884.59
2023-02-12T11:12:27.833Z,101892.63
2023-02-12T11:14:57.635Z,101881.19
2023-02-12T11:17:44.518Z,101889.88
2023-02-12T11:20:17.511Z,101893.88
2023-02-12T11:22:51.346Z,101892.16
2023-02-12T11:25:18.553Z,101891.81
2023-02-12T11:27:45.576Z,101887.28
2023-02-12T11:30:21.163Z,101884.91
2023-02-12T11:32:49.575Z,101892.47
2023-02-12T11:35:31.160Z,101885.91
2023-02-12T11:37:59.086Z,101881.53
2023-02-12T11:40:29.136Z,101893.25
2023-02-12T11:43:02.211Z,101880.25
2023-02-12T11:45:37.487Z,101880.44
2023-02-12T11:48:21.321Z,101875.59
2023-02-12T11:50:50.210Z,101884.09
2023-02-12T11:53:32.696Z,101874.38
2023-02-12T11:56:05.492Z,101876.53
2023-02-12T11:58:32.461Z,101873.19
2023-02-12T12:01:05.678Z,101868.44
2023-02-12T12:03:59.608Z,101884.56
2023-02-12T12:06:31.988Z,101870.50
2023-02-12T12:09:08.113Z,101871.53
2023-02-12T12:11:34.834Z,101875.94
2023-02-12T12:14:12.716Z,101870.94
2023-02-12T12:17:10.036Z,101873.38
2023-02-12T12:20:03.761Z,101859.13
2023-02-12T12:22:53.031Z,101855.16
2023-02-12T12:25:24.527Z,101855.72
2023-02-12T12:28:13.379Z,101851.59
2023-02-12T12:30:43.488Z,101854.09
2023-02-12T12:33:16.314Z,101851.00
2023-02-12T12:36:21.030Z,101845.09
2023-02-12T12:39:00.691Z,101839.16
2023-02-12T12:41:48.166Z,101836.59
2023-02-12T12:44:49.310Z,101838.47
2023-02-12T12:47:37.732Z,101841.41
2023-02-12T12:50:13.573Z,101833.66
2023-02-12T12:52:46.448Z,101826.09
2023-02-12T12:55:38.203Z,101834.88
2023-02-12T12:58:13.805Z,101825.94
2023-02-12T13:00:58.603Z,101812.59
2023-02-12T13:03:43.419Z,101815.16
2023-02-12T13:06:16.505Z,101813.78
2023-02-12T13:09:08.210Z,101819.56
2023-02-12T13:11:34.981Z,101811.00
2023-02-12T13:14:19.612Z,101818.56
2023-02-12T13:16:51.699Z,101814.00
2023-02-12T13:19:45.900Z,101818.19
2023-02-12T13:22:36.145Z,101806.94
2023-02-12T13:25:22.906Z,101816.03
2023-02-12T13:27:51.243Z,101814.13
2023-02-12T13:30:22.173Z,101804.84
2023-02-12T13:32:56.163Z,101801.66
2023-02-12T13:35:24.105Z,101811.84
2023-02-12T13:37:54.009Z,101817.97
2023-02-12T13:40:29.657Z,101815.16
2023-02-12T13:43:02.127Z,101808.16
2023-02-12T13:45:42.282Z,101819.75
2023-02-12T13:48:47.599Z,101804.69
2023-02-12T13:51:32.497Z,101803.63
2023-02-12T13:54:11.945Z,101801.97
2023-02-12T13:56:41.972Z,101797.72
2023-02-12T13:59:30.581Z,101795.97
2023-02-12T14:02:18.579Z,101799.06
2023-02-12T14:05:32.978Z,101799.53
2023-02-12T14:08:03.606Z,101787.31
2023-02-12T14:10:36.983Z,101785.28
2023-02-12T14:13:11.457Z,101790.09
2023-02-12T14:15:44.650Z,101783.75
2023-02-12T14:18:37.587Z,101773.75
2023-02-12T14:21:13.617Z,101791.38
2023-02-12T14:23:46.031Z,101782.72
2023-02-12T14:26:13.740Z,101786.47
2023-02-12T14:28:40.524Z,101780.69
2023-02-12T14:31:19.573Z,101789.31
2023-02-12T14:33:48.686Z,101788.19
2023-02-12T14:36:33.754Z,101786.69
2023-02-12T14:39:23.393Z,101779.75
2023-02-12T14:41:54.863Z,101771.25
2023-02-12T14:44:23.213Z,101771.56
2023-02-12T14:46:52.532Z,101766.59
2023-02-12T14:49:24.631Z,101775.44
2023-02-12T14:51:55.821Z,101776.00
2023-02-12T14:54:31.821Z,101775.78
2023-02-12T14:57:07.252Z,101780.13
2023-02-12T14:59:39.280Z,101777.44
2023-02-12T15:02:06.632Z,101777.19
2023-02-12T15:04:37.724Z,101776.44
2023-02-12T15:07:11.669Z,101774.81
2023-02-12T15:10:00.707Z,101768.44
2023-02-12T15:12:32.757Z,101773.81
2023-02-12T15:15:30.934Z,101781.28
2023-02-12T15:18:05.243Z,101777.34
2023-02-12T15:20:56.717Z,101773.50
2023-02-12T15:24:03.502Z,101770.94
2023-02-12T15:26:34.006Z,101764.34
2023-02-12T15:29:01.247Z,101765.81
2023-02-12T15:31:30.323Z,101756.19
2023-02-12T15:33:59.200Z,101763.56
2023-02-12T15:36:27.937Z,101758.31
2023-02-12T15:38:57.654Z,101754.56
2023-02-12T15:41:44.761Z,101758.91
2023-02-12T15:44:31.996Z,101764.41
2023-02-12T15:47:09.493Z,101773.41
2023-02-12T15:49:38.174Z,101777.59
2023-02-12T15:52:20.657Z,101774.06
2023-02-12T15:54:48.806Z,101767.78
2023-02-12T15:57:22.603Z,101767.47
2023-02-12T15:59:57.503Z,101763.41
2023-02-12T16:02:30.026Z,101764.09
2023-02-12T16:04:58.012Z,101763.47
2023-02-12T16:07:26.968Z,101765.66
2023-02-12T16:09:54.199Z,101767.84
2023-02-12T16:12:24.717Z,101767.25
2023-02-12T16:14:55.791Z,101759.88
2023-02-12T16:17:25.531Z,101770.03
2023-02-12T16:20:01.167Z,101767.91
2023-02-12T16:22:35.920Z,101765.69
2023-02-12T16:25:03.430Z,101772.38
2023-02-12T16:27:34.921Z,101777.81
2023-02-12T16:30:26.991Z,101783.66
2023-02-12T16:32:54.168Z,101786.53
2023-02-12T16:35:28.366Z,101779.94
2023-02-12T16:38:01.426Z,101786.63
2023-02-12T16:40:31.468Z,101791.41
2023-02-12T16:43:00.127Z,101785.75
2023-02-12T16:45:27.440Z,101787.31
2023-02-12T16:48:00.587Z,101776.38
2023-02-12T16:50:30.469Z,101788.00
2023-02-12T16:53:05.376Z,101796.78
2023-02-12T16:55:32.706Z,101792.50
2023-02-12T16:58:00.529Z,101791.59
2023-02-12T17:00:27.382Z,101792.50
2023-02-12T17:02:55.829Z,101789.34
2023-02-12T17:05:23.433Z,101787.03
2023-02-12T17:07:50.460Z,101775.16
2023-02-12T17:10:17.580Z,101779.25
2023-02-12T17:12:45.840Z,101781.16
2023-02-12T17:15:18.640Z,101790.91
2023-02-12T17:17:45.406Z,101789.78
2023-02-12T17:20:12.672Z,101794.03
2023-02-12T17:22:39.545Z,101796.63
2023-02-12T17:25:06.502Z,101804.16
2023-02-12T17:27:33.319Z,101796.88
2023-02-12T17:30:00.042Z,101805.38
2023-02-12T17:32:26.937Z,101801.91
2023-02-12T17:34:53.801Z,101800.75
2023-02-12T17:37:22.353Z,101807.13
2023-02-12T17:39:49.123Z,101805.81
2023-02-12T17:42:15.969Z,101803.03
2023-02-12T17:44:42.804Z,101808.75
2023-02-12T17:47:09.685Z,101807.13
2023-02-12T17:49:38.659Z,101817.00
2023-02-12T17:52:07.327Z,101820.03
2023-02-12T17:54:34.486Z,101821.53
2023-02-12T17:57:01.255Z,101815.66
2023-02-12T17:59:28.206Z,101814.81
2023-02-12T18:01:55.449Z,101813.53
2023-02-12T18:04:22.330Z,101825.09
2023-02-12T18:06:49.304Z,101822.91
2023-02-12T18:09:16.099Z,101828.63
2023-02-12T18:11:42.999Z,101825.88
2023-02-12T18:14:11.251Z,101818.16
2023-02-12T18:16:38.183Z,101823.03
2023-02-12T18:19:05.773Z,101820.88
2023-02-12T18:21:35.039Z,101823.72
2023-02-12T18:24:02.048Z,101822.19
2023-02-12T18:26:28.863Z,101821.34
2023-02-12T18:28:59.737Z,101820.53
2023-02-12T18:31:27.121Z,101817.19
2023-02-12T18:33:54.008Z,101814.16
2023-02-12T18:36:21.751Z,101820.50
2023-02-12T18:38:50.281Z,101817.41
2023-02-12T18:41:35.928Z,101815.88
2023-02-12T18:44:02.785Z,101801.47
2023-02-12T18:46:31.409Z,101810.00
2023-02-12T18:48:59.106Z,101797.31
2023-02-12T18:51:28.297Z,101801.94
2023-02-12T18:54:06.448Z,101799.25
2023-02-12T18:56:36.355Z,101796.06
2023-02-12T18:59:05.316Z,101793.63
2023-02-12T19:01:33.347Z,101789.03
2023-02-12T19:04:02.099Z,101800.25
2023-02-12T19:06:29.917Z,101803.81
2023-02-12T19:09:01.018Z,101797.44
2023-02-12T19:11:28.666Z,101800.44
2023-02-12T19:13:55.720Z,101793.91
2023-02-12T19:16:23.983Z,101794.63
2023-02-12T19:18:56.385Z,101785.94
2023-02-12T19:21:26.242Z,101786.25
2023-02-12T19:23:58.132Z,101783.09
2023-02-12T19:26:25.436Z,101781.91
2023-02-12T19:28:52.358Z,101788.63
2023-02-12T19:31:25.332Z,101779.13
2023-02-12T19:33:57.440Z,101773.94
2023-02-12T19:36:25.694Z,101779.97
2023-02-12T19:38:52.465Z,101784.06
2023-02-12T19:41:22.291Z,101774.53
2023-02-12T19:43:54.410Z,101772.34
2023-02-12T19:46:21.901Z,101776.19
2023-02-12T19:48:49.193Z,101775.13
2023-02-12T19:51:21.275Z,101784.94
2023-02-12T19:53:48.591Z,101791.38
2023-02-12T19:56:15.711Z,101779.31
2023-02-12T19:58:42.902Z,101781.19
2023-02-12T20:01:15.430Z,101786.00
2023-02-12T20:03:42.756Z,101777.69
2023-02-12T20:06:11.771Z,101767.34
2023-02-12T20:08:39.891Z,101761.81
2023-02-12T20:11:08.656Z,101764.13
2023-02-12T20:13:38.163Z,101768.66
2023-02-12T20:16:11.355Z,101767.75
2023-02-12T20:18:38.994Z,101765.13
2023-02-12T20:21:14.191Z,101755.75
2023-02-12T20:23:41.171Z,101753.41
2023-02-12T20:26:09.505Z,101753.13
2023-02-12T20:28:37.390Z,101764.66
2023-02-12T20:31:09.018Z,101762.16
2023-02-12T20:33:36.089Z,101763.34
2023-02-12T20:36:02.872Z,101764.34
2023-02-12T20:38:29.810Z,101762.66
2023-02-12T20:41:03.288Z,101763.19
2023-02-12T20:43:31.048Z,101759.31
2023-02-12T20:46:04.917Z,101755.38
2023-02-12T20:48:31.986Z,101749.00
2023-02-12T20:51:13.471Z,101746.00
2023-02-12T20:53:41.157Z,101744.84
2023-02-12T20:56:14.041Z,101747.22
2023-02-12T20:58:44.907Z,101741.19
2023-02-12T21:01:15.853Z,101744.38
2023-02-12T21:03:43.377Z,101747.41
2023-02-12T21:06:10.824Z,101750.56
2023-02-12T21:08:40.019Z,101751.75
2023-02-12T21:11:15.405Z,101742.72
2023-02-12T21:13:53.923Z,101752.09
2023-02-12T21:16:34.019Z,101750.25
2023-02-12T21:19:01.147Z,101762.63
2023-02-12T21:21:30.283Z,101752.91
2023-02-12T21:23:59.479Z,101751.06
2023-02-12T21:26:28.107Z,101761.75
2023-02-12T21:28:58.243Z,101753.25
2023-02-12T21:31:28.741Z,101752.25
2023-02-12T21:33:57.409Z,101760.91
2023-02-12T21:36:30.438Z,101754.06
2023-02-12T21:38:59.044Z,101761.75
2023-02-12T21:41:31.116Z,101760.25
2023-02-12T21:44:00.232Z,101751.88
2023-02-12T21:46:27.806Z,101749.03
2023-02-12T21:48:56.411Z,101752.56
2023-02-12T21:51:26.149Z,101753.22
2023-02-12T21:53:55.183Z,101758.88
2023-02-12T21:56:22.000Z,101758.91
2023-02-12T21:58:49.376Z,101758.69
2023-02-12T22:01:26.017Z,101762.03
2023-02-12T22:03:56.688Z,101762.00
2023-02-12T22:06:25.026Z,101758.69
2023-02-12T22:09:00.335Z,101750.66
2023-02-12T22:11:30.864Z,101757.81
2023-02-12T22:13:57.709Z,101756.19
2023-02-12T22:16:26.417Z,101754.38
2023-02-12T22:18:55.959Z,101755.34
2023-02-12T22:21:24.413Z,101759.34
2023-02-12T22:23:52.230Z,101753.16
2023-02-12T22:26:24.676Z,101747.78
2023-02-12T22:29:00.364Z,101759.03
2023-02-12T22:31:29.540Z,101760.88
2023-02-12T22:34:02.680Z,101749.94
2023-02-12T22:36:29.537Z,101762.13
2023-02-12T22:38:59.241Z,101756.28
2023-02-12T22:41:27.209Z,101758.84
2023-02-12T22:43:55.200Z,101751.72
2023-02-12T22:46:23.798Z,101756.88
2023-02-12T22:48:50.553Z,101757.84
2023-02-12T22:51:23.041Z,101759.63
2023-02-12T22:53:50.945Z,101759.63
2023-02-12T22:56:17.921Z,101770.69
2023-02-12T22:58:45.687Z,101770.69
2023-02-12T23:01:16.097Z,101768.56
2023-02-12T23:03:43.147Z,101769.13
2023-02-12T23:06:18.176Z,101768.00
2023-02-12T23:08:45.548Z,101763.31
2023-02-12T23:11:12.558Z,101763.22
2023-02-12T23:13:39.371Z,101761.38
2023-02-12T23:16:06.838Z,101754.69
2023-02-12T23:18:34.176Z,101763.38
2023-02-12T23:21:01.593Z,101764.84
2023-02-12T23:23:28.488Z,101764.34
2023-02-12T23:25:55.444Z,101752.69
2023-02-12T23:28:23.660Z,101756.13
2023-02-12T23:30:51.381Z,101759.38
2023-02-12T23:33:19.220Z,101758.94
2023-02-12T23:35:47.072Z,101754.66
2023-02-12T23:38:14.192Z,101762.34
2023-02-12T23:40:42.542Z,101756.41
2023-02-12T23:43:10.760Z,101760.97
2023-02-12T23:45:38.048Z,101752.47
2023-02-12T23:48:05.130Z,101752.66
2023-02-12T23:50:32.129Z,101748.34
2023-02-12T23:53:00.683Z,101761.31
2023-02-12T23:55:28.629Z,101758.09
2023-02-12T23:57:55.787Z,101757.16
